Time;durP1;ratioP1;P1;durP2;ratioP2;P2;SDS_P1;SDS_P2;PMS_P1;PMS_P2;Temp;Humidity;BMP_temperature;BMP_pressure;BME280_temperature;BME280_humidity;BME280_pressure;Samples;Min_cycle;Max_cycle;Signal;HPM_P1;HPM_P2
2022/01/10 00:01:51;;;;;;;25.75;20.67;;;-6.30;90.30;-7.10;98239.00;;;;5018444;28;87648;-50
2022/01/10 00:04:18;;;;;;;27.27;21.38;;;-6.30;90.30;-7.10;98226.00;;;;5018005;28;88045;-60
2022/01/10 00:06:45;;;;;;;26.25;22.13;;;-6.30;90.40;-7.10;98233.00;;;;5018390;28;88610;-61
2022/01/10 00:09:11;;;;;;;25.73;21.35;;;-6.30;90.40;-7.10;98234.00;;;;5019220;28;87007;-61
2022/01/10 00:11:37;;;;;;;24.25;20.95;;;-6.30;90.30;-7.10;98221.00;;;;5018896;28;87313;-61
2022/01/10 00:14:03;;;;;;;28.13;21.92;;;-6.30;90.30;-7.10;98229.00;;;;5019406;28;87609;-59
2022/01/10 00:16:29;;;;;;;24.23;21.52;;;-6.30;90.40;-7.10;98232.00;;;;5019866;28;87330;-62
2022/01/10 00:18:55;;;;;;;26.40;21.75;;;-6.30;90.40;-7.10;98234.00;;;;5020042;28;87395;-61
2022/01/10 00:21:22;;;;;;;24.52;21.05;;;-6.30;90.40;-7.10;98228.00;;;;5002087;28;88545;-60
2022/01/10 00:23:48;;;;;;;25.58;21.70;;;-6.30;90.40;-7.10;98224.00;;;;5019754;28;89781;-60
2022/01/10 00:26:14;;;;;;;25.20;21.15;;;-6.30;90.30;-7.10;98232.00;;;;5020123;28;88187;-58
2022/01/10 00:28:41;;;;;;;27.25;22.42;;;-6.30;90.30;-7.10;98227.00;;;;5018649;28;87038;-60
2022/01/10 00:31:07;;;;;;;24.15;20.92;;;-6.30;90.30;-7.10;98223.00;;;;5002452;28;87024;-60
2022/01/10 00:33:33;;;;;;;25.55;21.17;;;-6.30;90.40;-7.10;98222.00;;;;5020969;28;88997;-60
2022/01/10 00:36:00;;;;;;;25.45;20.60;;;-6.20;90.50;-7.10;98227.00;;;;5017477;28;87950;-59
2022/01/10 00:38:26;;;;;;;24.48;21.38;;;-6.30;90.40;-7.10;98220.00;;;;5017503;28;87068;-60
2022/01/10 00:40:53;;;;;;;24.02;20.67;;;-6.30;90.50;-7.10;98228.00;;;;5018035;28;86257;-58
2022/01/10 00:43:30;;;;;;;22.80;20.35;;;-6.20;90.50;-7.10;98232.00;;;;5019985;28;86987;-60
2022/01/10 00:45:57;;;;;;;22.83;19.98;;;-6.20;90.50;-7.10;98226.00;;;;5003873;28;87572;-62
2022/01/10 00:48:23;;;;;;;25.83;20.77;;;-6.30;90.50;-7.00;98225.00;;;;5018829;28;88793;-61
2022/01/10 00:50:49;;;;;;;22.27;19.65;;;-6.30;90.50;-7.00;98225.00;;;;5018892;28;87110;-60
2022/01/10 00:53:15;;;;;;;24.77;20.67;;;-6.20;90.50;-7.00;98228.00;;;;5020063;28;87517;-60
2022/01/10 00:55:41;;;;;;;24.50;19.80;;;-6.20;90.40;-7.00;98230.00;;;;5019117;28;87360;-59
2022/01/10 00:58:07;;;;;;;24.40;20.83;;;-6.20;90.40;-7.00;98214.00;;;;5018793;28;87104;-55
2022/01/10 01:00:34;;;;;;;25.70;19.83;;;-6.30;90.40;-7.00;98221.00;;;;5019256;28;87040;-56
2022/01/10 01:03:00;;;;;;;22.25;19.27;;;-6.20;90.50;-7.00;98217.00;;;;5019939;28;87550;-56
2022/01/10 01:05:29;;;;;;;24.45;20.60;;;-6.20;90.50;-6.90;98220.00;;;;5002116;28;87381;-54
2022/01/10 01:07:55;;;;;;;21.83;19.17;;;-6.20;90.80;-6.90;98221.00;;;;5017572;28;87081;-54
2022/01/10 01:13:26;;;;;;;24.48;19.95;;;-6.20;90.30;-6.90;98215.00;;;;5016575;28;88525;-54
2022/01/10 01:24:07;;;;;;;26.08;21.85;;;-6.10;90.40;-6.90;98199.00;;;;5005033;28;87727;-53
2022/01/10 01:26:47;;;;;;;26.87;21.90;;;-6.10;90.40;-6.90;98200.00;;;;5022160;28;88675;-52
2022/01/10 01:29:18;;;;;;;25.55;21.20;;;-6.10;90.50;-6.90;98204.00;;;;5023293;28;87218;-55
2022/01/10 01:31:44;;;;;;;27.73;21.05;;;-6.10;90.40;-6.90;98192.00;;;;5023544;28;86624;-54
2022/01/10 01:34:12;;;;;;;28.33;22.25;;;-6.10;90.40;-6.90;98194.00;;;;5026625;28;88587;-53
2022/01/10 01:36:39;;;;;;;26.48;22.02;;;-6.10;90.40;-6.80;98203.00;;;;5020892;28;87431;-54
2022/01/10 01:39:17;;;;;;;27.77;21.25;;;-6.10;90.40;-6.90;98203.00;;;;5022693;28;87998;-54
2022/01/10 01:41:44;;;;;;;25.17;21.80;;;-6.10;90.40;-6.80;98200.00;;;;5022146;28;87133;-55
2022/01/10 01:44:11;;;;;;;27.35;22.45;;;-6.10;90.40;-6.80;98203.00;;;;5021738;28;88085;-52
2022/01/10 01:46:38;;;;;;;28.05;23.60;;;-6.10;90.40;-6.90;98182.00;;;;5037793;28;87953;-53
2022/01/10 01:49:06;;;;;;;25.42;21.63;;;-6.10;90.50;-6.80;98191.00;;;;5021630;28;87311;-53
2022/01/10 01:51:33;;;;;;;23.27;20.05;;;-6.10;90.60;-6.80;98183.00;;;;5020103;28;87060;-55
2022/01/10 01:53:59;;;;;;;26.92;22.65;;;-6.10;90.50;-6.80;98196.00;;;;5019943;28;87711;-56
2022/01/10 01:56:25;;;;;;;26.00;21.10;;;-6.00;90.50;-6.80;98204.00;;;;5020919;28;87549;-51
2022/01/10 01:58:53;;;;;;;25.80;20.90;;;-6.00;90.60;-6.80;98205.00;;;;5021035;28;87157;-55
2022/01/10 02:01:22;;;;;;;25.77;20.25;;;-6.10;90.40;-6.80;98189.00;;;;5004736;28;87077;-52
2022/01/10 02:03:50;;;;;;;22.40;19.10;;;-6.00;90.50;-6.80;98196.00;;;;5020763;28;88463;-54
2022/01/10 02:06:22;;;;;;;22.60;19.38;;;-6.00;90.40;-6.80;98192.00;;;;5020148;28;90396;-54
2022/01/10 02:08:48;;;;;;;22.88;19.33;;;-6.00;90.50;-6.70;98187.00;;;;5021571;28;87930;-54
2022/01/10 02:11:15;;;;;;;22.48;19.35;;;-6.00;90.50;-6.80;98184.00;;;;4994456;28;87056;-52
2022/01/10 02:13:43;;;;;;;23.70;18.63;;;-6.00;90.50;-6.70;98181.00;;;;5021535;28;87384;-53
2022/01/10 02:16:33;;;;;;;23.98;19.38;;;-6.00;90.40;-6.70;98173.00;;;;5017231;28;87880;-55
2022/01/10 02:19:01;;;;;;;24.17;19.73;;;-6.00;90.40;-6.70;98180.00;;;;5021404;28;87004;-55
2022/01/10 02:21:27;;;;;;;21.52;19.00;;;-6.00;90.50;-6.70;98172.00;;;;5020667;28;86242;-56
2022/01/10 02:23:54;;;;;;;21.00;17.90;;;-6.00;90.50;-6.70;98167.00;;;;5020980;28;87433;-53
2022/01/10 02:26:27;;;;;;;22.00;18.00;;;-6.00;90.50;-6.80;98174.00;;;;5021842;28;87327;-55
2022/01/10 02:28:54;;;;;;;19.00;15.80;;;-6.00;90.40;-6.80;98173.00;;;;5021427;28;87945;-56
2022/01/10 02:31:21;;;;;;;20.02;15.38;;;-6.00;90.40;-6.80;98177.00;;;;5020195;28;86900;-54
2022/01/10 02:33:50;;;;;;;19.30;15.50;;;-6.00;90.40;-6.80;98180.00;;;;5020982;28;88116;-57
2022/01/10 02:36:27;;;;;;;21.17;15.55;;;-6.00;90.40;-6.80;98175.00;;;;5020556;28;87961;-56
2022/01/10 02:39:09;;;;;;;19.85;16.08;;;-6.00;90.40;-6.80;98171.00;;;;5019183;28;87358;-56
2022/01/10 02:41:42;;;;;;;19.83;15.70;;;-6.00;90.40;-6.70;98174.00;;;;5019339;28;87021;-53
2022/01/10 02:44:17;;;;;;;19.80;15.48;;;-6.00;90.50;-6.70;98183.00;;;;5020108;28;89245;-54
2022/01/10 02:46:45;;;;;;;17.00;14.82;;;-5.90;90.50;-6.70;98175.00;;;;5003049;28;88536;-52
2022/01/10 02:49:27;;;;;;;20.67;16.25;;;-5.90;90.50;-6.70;98172.00;;;;5015784;28;86952;-53
2022/01/10 02:51:55;;;;;;;20.80;16.88;;;-5.90;90.40;-6.60;98173.00;;;;5018797;28;87122;-53
2022/01/10 02:54:23;;;;;;;20.05;16.83;;;-5.90;90.60;-6.60;98177.00;;;;5019349;28;88759;-56
2022/01/10 02:56:54;;;;;;;20.27;17.45;;;-5.80;90.60;-6.60;98177.00;;;;5019883;28;90344;-56
2022/01/10 02:59:22;;;;;;;21.40;17.40;;;-5.80;90.70;-6.60;98174.00;;;;5028365;28;87026;-56
2022/01/10 03:01:50;;;;;;;24.48;18.88;;;-5.80;90.60;-6.60;98185.00;;;;5020469;28;87283;-54
2022/01/10 03:04:18;;;;;;;26.65;21.65;;;-5.80;90.60;-6.60;98172.00;;;;5020035;28;90137;-54
2022/01/10 03:06:45;;;;;;;26.45;21.08;;;-5.90;90.70;-6.70;98179.00;;;;5020226;28;88532;-55
2022/01/10 03:09:12;;;;;;;27.73;22.40;;;-5.90;90.90;-6.70;98186.00;;;;5020113;28;87311;-54
2022/01/10 03:11:41;;;;;;;24.73;21.00;;;-6.00;91.10;-6.80;98176.00;;;;5031291;28;86563;-54
2022/01/10 03:14:11;;;;;;;24.40;21.63;;;-6.00;91.20;-6.80;98184.00;;;;5040932;28;87652;-55
2022/01/10 03:16:38;;;;;;;25.65;21.33;;;-6.00;91.20;-6.80;98189.00;;;;5020657;28;87403;-53
2022/01/10 03:19:05;;;;;;;28.58;22.73;;;-6.00;91.20;-6.80;98200.00;;;;5019492;28;88335;-51
2022/01/10 03:21:31;;;;;;;24.20;21.60;;;-6.00;91.20;-6.80;98192.00;;;;5020850;28;87205;-56
2022/01/10 03:23:59;;;;;;;26.10;21.80;;;-6.00;91.20;-6.80;98205.00;;;;5029641;28;87564;-55
2022/01/10 03:26:27;;;;;;;26.23;21.67;;;-6.00;91.20;-6.80;98201.00;;;;5034845;28;87490;-56
2022/01/10 03:28:55;;;;;;;25.60;21.95;;;-6.10;91.20;-6.80;98197.00;;;;5019701;28;87322;-53
2022/01/10 03:31:21;;;;;;;25.23;21.30;;;-6.10;91.20;-6.90;98200.00;;;;5017985;28;87597;-55
2022/01/10 03:33:48;;;;;;;24.95;22.08;;;-6.10;91.10;-6.90;98199.00;;;;5017778;28;87167;-53
2022/01/10 03:36:14;;;;;;;28.38;23.17;;;-6.10;91.20;-6.90;98211.00;;;;5017758;28;87428;-51
2022/01/10 03:38:41;;;;;;;23.00;20.50;;;-6.10;91.20;-6.90;98205.00;;;;5016905;28;87817;-60
2022/01/10 03:41:09;;;;;;;23.73;21.17;;;-6.10;91.20;-6.90;98211.00;;;;5019530;28;87087;-55
2022/01/10 03:43:36;;;;;;;24.35;21.17;;;-6.10;91.20;-6.90;98205.00;;;;5018636;28;88434;-53
2022/01/10 03:46:02;;;;;;;25.15;22.40;;;-6.10;91.20;-6.90;98202.00;;;;5002595;28;89386;-53
2022/01/10 03:48:29;;;;;;;25.45;22.02;;;-6.10;91.30;-6.90;98210.00;;;;5019397;28;87592;-52
2022/01/10 03:50:56;;;;;;;24.63;22.10;;;-6.10;91.30;-6.90;98205.00;;;;5019585;28;87061;-52
2022/01/10 03:53:23;;;;;;;27.60;22.45;;;-6.20;91.20;-6.90;98204.00;;;;5019402;28;87578;-56
2022/01/10 03:55:50;;;;;;;25.35;22.15;;;-6.20;91.30;-6.90;98215.00;;;;5018849;28;87958;-57
2022/01/10 03:58:16;;;;;;;27.52;22.23;;;-6.20;91.40;-6.90;98205.00;;;;5019106;28;87035;-54
2022/01/10 04:00:43;;;;;;;24.15;21.25;;;-6.20;91.20;-6.90;98204.00;;;;5019609;28;86371;-55
2022/01/10 04:03:10;;;;;;;25.77;22.08;;;-6.10;91.20;-6.90;98210.00;;;;5019448;28;88487;-55
2022/01/10 04:05:52;;;;;;;26.05;22.38;;;-6.10;91.20;-6.90;98212.00;;;;5014756;28;88133;-57
2022/01/10 04:08:18;;;;;;;25.52;21.73;;;-6.10;91.30;-6.90;98216.00;;;;5018535;28;87962;-57
2022/01/10 04:10:44;;;;;;;27.50;22.80;;;-6.10;91.40;-6.90;98222.00;;;;5020021;28;87086;-55
2022/01/10 04:13:11;;;;;;;27.08;23.90;;;-6.20;91.30;-6.90;98204.00;;;;5018498;28;87524;-52
2022/01/10 04:15:39;;;;;;;26.27;22.23;;;-6.20;91.40;-7.00;98210.00;;;;5018920;28;87390;-56
2022/01/10 04:18:07;;;;;;;25.55;22.17;;;-6.20;91.50;-7.00;98207.00;;;;5019759;28;87037;-56
2022/01/10 04:20:34;;;;;;;25.77;22.92;;;-6.20;91.50;-6.90;98210.00;;;;5018376;28;87453;-55
2022/01/10 04:23:00;;;;;;;29.52;24.85;;;-6.20;91.60;-6.90;98207.00;;;;5019659;28;88411;-55
2022/01/10 04:25:26;;;;;;;27.65;23.52;;;-6.20;91.40;-6.90;98210.00;;;;5025508;27;87281;-55
2022/01/10 04:27:53;;;;;;;26.77;24.00;;;-6.20;91.50;-6.90;98213.00;;;;5018578;28;87003;-53
2022/01/10 04:30:26;;;;;;;26.90;23.70;;;-6.20;91.40;-6.90;98213.00;;;;5018412;28;87467;-55
2022/01/10 04:32:53;;;;;;;27.13;23.63;;;-6.20;91.50;-6.90;98218.00;;;;5016471;28;89158;-56
2022/01/10 04:35:20;;;;;;;26.25;23.45;;;-6.20;91.60;-6.90;98220.00;;;;5017765;28;88355;-56
2022/01/10 04:37:46;;;;;;;28.75;24.10;;;-6.20;91.70;-6.90;98217.00;;;;5017531;28;87065;-53
2022/01/10 04:40:13;;;;;;;29.02;24.40;;;-6.20;91.60;-6.90;98219.00;;;;5018049;28;87604;-55
2022/01/10 04:42:39;;;;;;;27.23;24.25;;;-6.20;91.60;-6.90;98215.00;;;;5010519;28;88097;-54
2022/01/10 04:45:06;;;;;;;26.23;22.98;;;-6.20;91.60;-6.90;98235.00;;;;5017944;28;88512;-58
2022/01/10 04:47:32;;;;;;;25.23;22.58;;;-6.20;91.60;-6.90;98235.00;;;;5016475;28;87350;-59
2022/01/10 04:52:28;;;;;;;25.77;21.98;;;-6.20;91.60;-6.90;98230.00;;;;5021859;28;87421;-58
2022/01/10 04:54:54;;;;;;;23.55;21.08;;;-6.20;91.50;-6.90;98238.00;;;;5021003;28;88892;-59
2022/01/10 04:57:23;;;;;;;24.30;20.98;;;-6.20;91.50;-6.90;98238.00;;;;5021866;28;87908;-61
2022/01/10 04:59:49;;;;;;;26.30;20.70;;;-6.20;91.50;-6.90;98238.00;;;;5021203;28;87195;-60
2022/01/10 05:02:15;;;;;;;25.00;20.45;;;-6.20;91.40;-6.90;98243.00;;;;5021357;28;87636;-60
2022/01/10 05:04:42;;;;;;;23.83;20.02;;;-6.20;91.60;-6.90;98237.00;;;;5022310;28;88417;-61
2022/01/10 05:07:12;;;;;;;26.58;22.13;;;-6.10;91.50;-6.90;98246.00;;;;5020557;28;87045;-60
2022/01/10 05:09:39;;;;;;;25.38;21.55;;;-6.10;91.60;-6.90;98245.00;;;;5020920;28;87108;-61
2022/01/10 05:12:09;;;;;;;24.50;20.70;;;-6.10;91.70;-6.90;98246.00;;;;5021381;28;87603;-60
2022/01/10 05:14:36;;;;;;;25.52;21.00;;;-6.20;91.60;-6.90;98241.00;;;;5020633;28;88350;-62
2022/01/10 05:17:02;;;;;;;21.65;19.35;;;-6.10;91.80;-6.90;98251.00;;;;5020660;28;86983;-60
2022/01/10 05:19:31;;;;;;;23.17;18.65;;;-6.10;91.70;-6.80;98255.00;;;;5021068;28;87594;-59
2022/01/10 05:21:58;;;;;;;22.42;19.02;;;-6.00;91.50;-6.80;98251.00;;;;5020707;28;89816;-61
2022/01/10 05:24:24;;;;;;;24.42;18.98;;;-6.00;91.20;-6.80;98249.00;;;;5020420;28;88384;-60
2022/01/10 05:26:51;;;;;;;20.98;16.80;;;-6.00;91.20;-6.70;98262.00;;;;5020383;28;87706;-61
2022/01/10 05:29:21;;;;;;;22.63;18.42;;;-6.00;91.20;-6.70;98260.00;;;;5021084;28;86905;-61
2022/01/10 05:31:47;;;;;;;21.95;18.42;;;-5.90;91.30;-6.70;98262.00;;;;5020107;28;87571;-60
2022/01/10 05:34:22;;;;;;;25.35;19.35;;;-5.90;91.30;-6.70;98275.00;;;;5019579;28;89018;-59
2022/01/10 05:36:48;;;;;;;21.77;18.17;;;-5.90;91.30;-6.70;98279.00;;;;5021116;28;87482;-60
2022/01/10 05:39:15;;;;;;;22.90;18.48;;;-5.90;91.20;-6.70;98281.00;;;;5020049;28;87147;-61
2022/01/10 05:41:42;;;;;;;24.67;18.65;;;-6.00;91.20;-6.70;98274.00;;;;5019229;28;87730;-60
2022/01/10 05:44:08;;;;;;;20.17;17.95;;;-6.00;91.20;-6.80;98278.00;;;;5003970;28;88485;-60
2022/01/10 05:46:41;;;;;;;21.90;18.88;;;-6.00;91.20;-6.80;98282.00;;;;5020125;28;88458;-61
2022/01/10 05:49:08;;;;;;;21.50;18.10;;;-6.00;91.20;-6.80;98291.00;;;;5020909;28;87661;-60
2022/01/10 05:51:36;;;;;;;21.73;18.55;;;-6.00;91.20;-6.80;98292.00;;;;5004884;28;88034;-61
2022/01/10 05:54:22;;;;;;;21.70;18.77;;;-6.00;91.20;-6.80;98294.00;;;;5021353;28;87548;-60
2022/01/10 05:56:48;;;;;;;24.70;17.75;;;-6.00;91.20;-6.80;98302.00;;;;5022021;28;87420;-60
2022/01/10 05:59:14;;;;;;;21.67;17.70;;;-6.10;91.20;-6.80;98304.00;;;;5027165;28;87077;-60
2022/01/10 06:01:43;;;;;;;22.88;18.90;;;-6.10;91.10;-6.80;98312.00;;;;5021528;28;87590;-61
2022/01/10 06:04:17;;;;;;;22.15;18.25;;;-6.10;91.20;-6.80;98288.00;;;;5020157;28;87008;-60
2022/01/10 06:06:44;;;;;;;20.88;18.40;;;-6.10;91.20;-6.80;98301.00;;;;5021265;28;87526;-61
2022/01/10 06:09:11;;;;;;;22.98;17.90;;;-6.10;91.10;-6.80;98301.00;;;;5020796;28;86926;-59
2022/01/10 06:11:40;;;;;;;21.05;18.85;;;-6.10;91.20;-6.80;98297.00;;;;5023423;28;89168;-59
2022/01/10 06:14:08;;;;;;;20.98;17.40;;;-6.10;91.20;-6.80;98304.00;;;;5020420;28;88334;-60
2022/01/10 06:16:35;;;;;;;19.83;16.90;;;-6.10;91.20;-6.80;98307.00;;;;5020393;28;87011;-59
2022/01/10 06:19:02;;;;;;;21.35;17.20;;;-6.10;91.10;-6.90;98310.00;;;;5034868;28;87519;-60
2022/01/10 06:21:31;;;;;;;20.35;16.45;;;-6.10;91.20;-6.80;98301.00;;;;5004220;28;88678;-60
2022/01/10 06:23:59;;;;;;;21.35;17.33;;;-6.10;91.20;-6.90;98313.00;;;;5019895;28;88676;-62
2022/01/10 06:26:26;;;;;;;22.65;17.88;;;-6.10;91.20;-6.90;98306.00;;;;5019103;28;87081;-60
2022/01/10 06:28:52;;;;;;;19.33;16.67;;;-6.10;91.20;-6.80;98302.00;;;;5020933;28;86365;-60
2022/01/10 06:31:18;;;;;;;19.75;16.15;;;-6.10;91.10;-6.90;98308.00;;;;5002498;28;87740;-61
2022/01/10 06:33:59;;;;;;;21.55;17.60;;;-6.10;91.10;-6.80;98303.00;;;;5020667;28;88291;-61
2022/01/10 06:36:29;;;;;;;20.73;16.30;;;-6.10;91.20;-6.80;98319.00;;;;5017490;28;88237;-61
2022/01/10 06:38:56;;;;;;;22.10;16.80;;;-6.00;91.20;-6.80;98322.00;;;;5019148;28;87652;-60
2022/01/10 06:41:23;;;;;;;19.75;16.50;;;-6.00;91.20;-6.80;98308.00;;;;5002606;28;88056;-60
2022/01/10 06:43:49;;;;;;;18.80;15.93;;;-6.00;91.10;-6.80;98311.00;;;;5021274;28;87537;-60
2022/01/10 06:46:17;;;;;;;19.25;15.85;;;-6.00;91.20;-6.70;98312.00;;;;5017966;28;87206;-60
2022/01/10 06:48:43;;;;;;;20.42;16.10;;;-6.00;91.10;-6.70;98310.00;;;;5020070;28;87166;-60
2022/01/10 06:51:11;;;;;;;19.55;16.98;;;-6.00;91.10;-6.70;98312.00;;;;5019593;28;88605;-61
2022/01/10 06:53:41;;;;;;;19.48;15.75;;;-6.00;91.30;-6.70;98309.00;;;;5020430;28;87512;-60
2022/01/10 06:56:07;;;;;;;19.85;15.73;;;-5.90;91.00;-6.70;98316.00;;;;5020116;28;87167;-61
2022/01/10 06:58:36;;;;;;;20.05;16.55;;;-5.90;90.90;-6.70;98319.00;;;;5024996;28;87214;-61
2022/01/10 07:01:05;;;;;;;19.90;15.90;;;-5.90;90.80;-6.60;98327.00;;;;5026856;28;88563;-61
2022/01/10 07:03:31;;;;;;;17.05;15.07;;;-5.90;91.00;-6.60;98319.00;;;;5020612;28;88223;-61
2022/01/10 07:06:06;;;;;;;17.75;14.40;;;-5.90;90.90;-6.60;98324.00;;;;5019680;28;87240;-61
2022/01/10 07:08:32;;;;;;;19.05;14.98;;;-5.90;90.80;-6.60;98328.00;;;;5020105;28;87422;-61
2022/01/10 07:11:01;;;;;;;18.10;15.80;;;-5.90;90.80;-6.60;98327.00;;;;5022478;27;89371;-61
2022/01/10 07:13:29;;;;;;;19.00;15.75;;;-5.90;90.90;-6.60;98325.00;;;;5018488;28;87459;-62
2022/01/10 07:15:59;;;;;;;20.40;15.82;;;-5.90;90.90;-6.60;98328.00;;;;5019808;28;86986;-60
2022/01/10 07:18:25;;;;;;;18.95;15.70;;;-5.80;90.90;-6.50;98312.00;;;;5019994;28;86268;-61
2022/01/10 07:20:55;;;;;;;19.10;14.52;;;-5.80;90.90;-6.60;98332.00;;;;5020026;28;87558;-62
2022/01/10 07:23:23;;;;;;;18.38;14.73;;;-5.80;90.80;-6.60;98330.00;;;;5020266;28;88506;-60
2022/01/10 07:25:50;;;;;;;16.48;14.75;;;-5.80;90.80;-6.50;98313.00;;;;5019797;28;88087;-60
2022/01/10 07:28:16;;;;;;;16.63;14.82;;;-5.80;91.00;-6.50;98327.00;;;;5021000;28;86985;-59
2022/01/10 07:30:43;;;;;;;17.60;14.15;;;-5.80;90.90;-6.40;98328.00;;;;5019623;28;87942;-59
2022/01/10 07:33:09;;;;;;;18.60;14.85;;;-5.70;90.80;-6.40;98334.00;;;;5018830;28;87353;-60
2022/01/10 07:35:35;;;;;;;21.50;15.45;;;-5.70;90.60;-6.40;98335.00;;;;5019160;28;87096;-63
2022/01/10 07:38:01;;;;;;;19.40;13.68;;;-5.60;90.80;-6.30;98354.00;;;;5019009;28;87073;-60
2022/01/10 07:40:27;;;;;;;14.60;13.02;;;-5.50;90.60;-6.30;98326.00;;;;5011229;28;87687;-59
2022/01/10 07:42:54;;;;;;;16.50;13.02;;;-5.50;90.30;-6.20;98323.00;;;;5019612;28;87192;-61
2022/01/10 07:45:31;;;;;;;17.05;14.20;;;-5.50;90.30;-6.10;98329.00;;;;5013167;28;87451;-60
2022/01/10 07:47:57;;;;;;;16.90;12.55;;;-5.40;90.30;-6.10;98338.00;;;;5020022;28;87085;-61
2022/01/10 07:50:23;;;;;;;17.83;12.85;;;-5.40;89.90;-6.20;98347.00;;;;5019295;28;88703;-61
2022/01/10 07:52:50;;;;;;;16.67;13.23;;;-5.40;90.20;-6.10;98332.00;;;;5016516;28;89482;-61
2022/01/10 07:55:16;;;;;;;17.35;13.15;;;-5.40;90.10;-6.10;98339.00;;;;5020731;28;86932;-60
2022/01/10 07:57:42;;;;;;;17.65;13.02;;;-5.40;90.00;-6.00;98332.00;;;;5020542;28;87321;-61
2022/01/10 08:00:09;;;;;;;17.50;12.60;;;-5.30;90.10;-6.00;98335.00;;;;5020019;28;87860;-61
2022/01/10 08:02:39;;;;;;;14.52;12.13;;;-5.30;90.30;-6.00;98344.00;;;;5019895;28;87335;-61
2022/01/10 08:05:07;;;;;;;16.20;11.95;;;-5.30;89.30;-5.90;98337.00;;;;5018581;28;87499;-61
2022/01/10 08:07:34;;;;;;;15.32;11.00;;;-5.20;89.40;-5.90;98337.00;;;;5020107;28;86961;-61
2022/01/10 08:10:03;;;;;;;12.65;10.50;;;-5.20;89.40;-5.90;98336.00;;;;5020357;28;87632;-63
2022/01/10 08:12:29;;;;;;;14.30;10.48;;;-5.20;89.00;-5.90;98336.00;;;;5024321;28;87341;-61
2022/01/10 08:14:55;;;;;;;12.18;9.93;;;-5.20;88.90;-5.90;98333.00;;;;5019378;28;87929;-62
2022/01/10 08:17:22;;;;;;;13.35;9.15;;;-5.20;88.90;-5.90;98335.00;;;;5020517;28;87085;-62
2022/01/10 08:19:49;;;;;;;13.93;10.00;;;-5.20;88.60;-5.80;98327.00;;;;5003182;28;90063;-61
2022/01/10 08:22:16;;;;;;;14.90;9.20;;;-5.10;88.80;-5.80;98339.00;;;;5019629;28;87516;-61
2022/01/10 08:24:42;;;;;;;12.30;8.55;;;-5.10;88.60;-5.70;98344.00;;;;5023559;28;86994;-61
2022/01/10 08:27:08;;;;;;;14.25;8.95;;;-5.00;87.90;-5.80;98345.00;;;;5018933;28;87155;-60
2022/01/10 08:29:34;;;;;;;11.20;8.25;;;-5.00;87.60;-5.70;98334.00;;;;5020192;28;87354;-62
2022/01/10 08:32:00;;;;;;;10.43;7.88;;;-5.00;87.60;-5.70;98349.00;;;;5019387;28;88727;-61
2022/01/10 08:34:27;;;;;;;9.50;8.10;;;-5.00;87.50;-5.70;98351.00;;;;5018284;28;87528;-61
2022/01/10 08:36:56;;;;;;;11.82;9.00;;;-5.00;87.20;-5.70;98359.00;;;;5019731;28;87423;-61
2022/01/10 08:39:22;;;;;;;12.73;8.45;;;-5.00;87.60;-5.70;98356.00;;;;5017990;28;88641;-62
2022/01/10 08:41:48;;;;;;;12.10;9.23;;;-5.00;87.60;-5.70;98341.00;;;;5019242;28;89218;-61
2022/01/10 08:44:15;;;;;;;12.70;9.18;;;-5.00;87.80;-5.70;98343.00;;;;5020443;28;88010;-62
2022/01/10 08:46:41;;;;;;;12.95;9.45;;;-5.00;87.90;-5.70;98342.00;;;;5019658;28;87011;-62
2022/01/10 08:49:08;;;;;;;12.18;8.25;;;-5.00;87.60;-5.70;98348.00;;;;5019545;28;89524;-60
2022/01/10 08:51:34;;;;;;;10.45;7.22;;;-5.00;87.70;-5.70;98362.00;;;;5019739;28;87105;-59
2022/01/10 08:54:03;;;;;;;12.02;7.50;;;-5.10;86.90;-5.90;98354.00;;;;5019261;28;87133;-60
2022/01/10 08:56:29;;;;;;;12.27;7.65;;;-5.20;87.30;-6.00;98355.00;;;;5020750;28;86276;-59
2022/01/10 08:58:55;;;;;;;12.35;6.80;;;-5.20;87.80;-6.00;98353.00;;;;5028036;28;87480;-61
2022/01/10 09:01:21;;;;;;;10.52;7.60;;;-5.20;87.90;-6.00;98345.00;;;;5019454;28;88631;-61
2022/01/10 09:03:48;;;;;;;9.38;7.35;;;-5.30;88.00;-6.00;98348.00;;;;5019986;28;87965;-61
2022/01/10 09:06:14;;;;;;;11.40;6.80;;;-5.30;87.90;-6.00;98357.00;;;;5020444;28;87542;-61
2022/01/10 09:08:44;;;;;;;10.85;7.43;;;-5.30;88.00;-6.10;98369.00;;;;5018867;28;89948;-63
2022/01/10 09:11:10;;;;;;;10.23;7.28;;;-5.30;88.30;-6.20;98356.00;;;;5020138;28;87326;-63
2022/01/10 09:13:36;;;;;;;9.32;6.93;;;-5.40;88.20;-6.10;98347.00;;;;5020234;28;87305;-57
2022/01/10 09:16:03;;;;;;;10.75;7.03;;;-5.40;88.80;-6.10;98350.00;;;;5019167;28;87028;-53
2022/01/10 09:18:29;;;;;;;9.45;6.78;;;-5.40;88.50;-6.10;98346.00;;;;5018175;28;87591;-62
2022/01/10 09:20:55;;;;;;;10.68;6.50;;;-5.30;88.40;-6.10;98346.00;;;;5019748;28;88444;-62
2022/01/10 09:23:23;;;;;;;8.88;6.22;;;-5.30;88.30;-6.00;98349.00;;;;5022462;28;87419;-62
2022/01/10 09:25:50;;;;;;;8.77;5.90;;;-5.20;88.20;-6.00;98367.00;;;;5019006;28;87241;-62
2022/01/10 09:28:18;;;;;;;10.27;6.75;;;-5.20;87.60;-6.00;98360.00;;;;5018267;28;88575;-62
2022/01/10 09:30:45;;;;;;;9.48;6.32;;;-5.20;87.50;-5.90;98356.00;;;;5018631;28;89528;-63
2022/01/10 09:33:11;;;;;;;7.43;5.78;;;-5.20;87.50;-5.90;98350.00;;;;5018411;28;87355;-60
2022/01/10 09:35:37;;;;;;;10.07;6.38;;;-5.20;87.20;-5.90;98345.00;;;;5019368;28;87379;-60
2022/01/10 09:38:03;;;;;;;10.48;6.22;;;-5.20;87.30;-6.00;98339.00;;;;5021352;28;88216;-61
2022/01/10 09:40:30;;;;;;;9.30;6.15;;;-5.30;87.50;-6.00;98348.00;;;;5022347;28;87477;-62
2022/01/10 09:42:57;;;;;;;10.23;6.07;;;-5.30;87.80;-6.10;98356.00;;;;5022746;28;87355;-61
2022/01/10 09:45:23;;;;;;;9.30;5.97;;;-5.40;87.40;-6.10;98374.00;;;;5022158;28;86725;-62
2022/01/10 09:47:49;;;;;;;8.50;5.97;;;-5.40;87.60;-6.10;98367.00;;;;5022115;28;87744;-61
2022/01/10 09:50:18;;;;;;;9.48;6.10;;;-5.30;87.40;-6.00;98360.00;;;;5021799;28;87377;-62
2022/01/10 09:52:49;;;;;;;9.82;5.85;;;-5.30;87.30;-6.00;98367.00;;;;5021411;28;88246;-62
2022/01/10 09:55:16;;;;;;;10.15;5.80;;;-5.30;87.10;-6.00;98382.00;;;;5023395;28;87453;-62
2022/01/10 09:57:43;;;;;;;9.07;5.97;;;-5.30;86.70;-5.90;98342.00;;;;5022197;28;88634;-62
2022/01/10 10:00:10;;;;;;;9.80;5.80;;;-5.20;86.40;-5.90;98361.00;;;;5040189;28;86987;-63
2022/01/10 10:02:41;;;;;;;8.98;5.82;;;-5.20;86.30;-5.90;98366.00;;;;5030109;28;87318;-62
2022/01/10 10:05:11;;;;;;;8.57;5.65;;;-5.20;86.10;-5.80;98364.00;;;;5023019;28;86984;-60
2022/01/10 10:07:40;;;;;;;9.18;5.65;;;-5.10;86.00;-5.70;98358.00;;;;5022254;28;89471;-62
2022/01/10 10:10:11;;;;;;;9.15;5.90;;;-5.00;86.00;-5.70;98362.00;;;;5022544;28;87224;-64
2022/01/10 10:12:50;;;;;;;8.35;5.90;;;-5.00;85.90;-5.70;98362.00;;;;5021532;28;87534;-60
2022/01/10 10:15:22;;;;;;;9.43;6.00;;;-5.00;85.60;-5.70;98359.00;;;;5022080;28;87234;-61
2022/01/10 10:17:48;;;;;;;8.32;5.50;;;-4.90;85.40;-5.50;98384.00;;;;5021814;28;88532;-61
2022/01/10 10:20:20;;;;;;;6.80;5.13;;;-4.80;85.40;-5.40;98334.00;;;;5020921;28;88188;-61
2022/01/10 10:22:47;;;;;;;;;;;-4.70;84.90;-5.40;98338.00;;;;5023254;28;86892;-62
2022/01/10 10:25:14;;;;;;;8.57;5.03;;;-4.70;84.20;-5.40;98352.00;;;;5023075;28;87202;-63
2022/01/10 10:27:47;;;;;;;9.70;5.57;;;-4.70;84.20;-5.40;98345.00;;;;5021532;28;87974;-62
2022/01/10 10:30:22;;;;;;;7.28;4.93;;;-4.70;84.00;-5.40;98366.00;;;;5022136;28;87718;-62
2022/01/10 10:32:50;;;;;;;7.72;4.68;;;-4.80;83.80;-5.50;98348.00;;;;5019337;28;87555;-63
2022/01/10 10:35:17;;;;;;;7.82;4.68;;;-4.80;84.00;-5.60;98361.00;;;;5021279;28;86344;-61
2022/01/10 10:37:48;;;;;;;9.30;5.45;;;-4.90;84.70;-5.60;98372.00;;;;5020972;28;87559;-62
2022/01/10 10:40:15;;;;;;;6.53;4.30;;;-4.90;84.90;-5.60;98374.00;;;;5021161;28;87378;-63
2022/01/10 10:42:45;;;;;;;6.63;4.43;;;-4.90;85.10;-5.70;98351.00;;;;5020650;28;87952;-62
2022/01/10 10:45:13;;;;;;;6.50;4.75;;;-4.90;85.20;-5.70;98363.00;;;;5021884;28;87075;-62
2022/01/10 10:47:44;;;;;;;7.93;4.85;;;-5.00;85.00;-5.80;98393.00;;;;5022043;28;87428;-62
2022/01/10 10:50:11;;;;;;;7.23;4.97;;;-5.00;84.90;-5.80;98369.00;;;;5022428;28;87384;-55
2022/01/10 10:52:41;;;;;;;8.35;4.65;;;-5.10;85.30;-5.90;98378.00;;;;5022444;28;86881;-57
2022/01/10 10:55:09;;;;;;;9.30;4.75;;;-5.10;85.40;-5.90;98354.00;;;;5022803;28;86936;-51
2022/01/10 10:57:35;;;;;;;7.07;4.53;;;-5.20;86.00;-5.90;98362.00;;;;5022343;28;87644;-54
2022/01/10 11:00:08;;;;;;;8.18;4.85;;;-5.20;85.90;-6.00;98366.00;;;;5039394;28;87063;-56